Aérodrome :
LOGIN :

S'inscrire | Disclaimer

   EN    FR    IT 

 










Légende :    VFR   VFR Marginal   IFR   IFR Intensif   IFR Très Intensif
Visi : 
Plafond : 
>= 8 km
>= 3000ft
5 à 8 km
1000 à 3000 ft
1500m à 5 km
500 à 1000 ft
800 à 1500m
200 à 500 ft
< 800m
< 200 ft
Symboles :   Orages  Brouillard  Fortes neiges  Fortes précipitations  Vent > 20 kt
SIGMETs :   Divers  Orages  Givrage  Turbulence  Onde Orograph.  Cendres Volcan.







- Altitude de l'aérodrome : 265 ft


ETSH - Holzdorf AB

DERNIER METAR :
  • 171020Z 27016G26KT 9999 SCT030 BKN050 15/07 Q1015 BLU BLU TEMPO WHT

METARs EXPIRÉS :
  • 170920Z 27015KT 9999 SCT028 SCT050 15/08 Q1015 BLU+BLU+ TEMPO BLU
  • 170820Z 27014KT 9999 SCT018 BKN040 13/09 Q1016 BLU BLU+ TEMPO BLU

TAF TAF ETSH
Valide du 17 à 11h jusqu'au 17 à 20h UTC


171023Z 1711/1720 27015G25KT 9999 NSW SCT025 BKN050
TEMPO 1711/1718 28020G30KT 5000 SHRA SCT010 BKN020CB
Pas de NOTAMs connus pour ce terrain.



MET'MAP, la Météo Aéronautique d'un coup d'oeil ! - Copyright ORBIFLY Décembre 2007 - Disclaimer

ORBIFLY MET'MAP TEAM :

Programmation & Développement : Alexandra Zaïnal
Conception & Développement : Baudouin d'Aumeries
Co-Programmation & Développement : Marc-Olivier Méhu
Soutien technique & logistique : Manuel Goepfert

Contact : metmap@orbifly.com




SOURCES & CREDITS :

   NOAA